sensor_id;sensor_type;location;lat;lon;timestamp;temperature;humidity
24902;DHT22;31328;51.402;0.016;2022-12-01T00:00:44;9.00;99.90
24902;DHT22;31328;51.402;0.016;2022-12-01T00:03:10;9.00;99.90
24902;DHT22;31328;51.402;0.016;2022-12-01T00:05:37;9.00;99.90
24902;DHT22;31328;51.402;0.016;2022-12-01T00:08:03;9.00;99.90
24902;DHT22;31328;51.402;0.016;2022-12-01T00:10:32;9.00;99.90
24902;DHT22;31328;51.402;0.016;2022-12-01T00:13:00;9.00;99.90
24902;DHT22;31328;51.402;0.016;2022-12-01T00:15:29;9.10;99.90
24902;DHT22;31328;51.402;0.016;2022-12-01T00:17:57;9.00;99.90
24902;DHT22;31328;51.402;0.016;2022-12-01T00:20:23;9.10;99.90
24902;DHT22;31328;51.402;0.016;2022-12-01T00:22:49;9.10;99.90
24902;DHT22;31328;51.402;0.016;2022-12-01T00:25:17;9.10;99.90
24902;DHT22;31328;51.402;0.016;2022-12-01T00:27:48;9.10;99.90
24902;DHT22;31328;51.402;0.016;2022-12-01T00:30:16;9.10;99.90
24902;DHT22;31328;51.402;0.016;2022-12-01T00:32:43;9.10;99.90
24902;DHT22;31328;51.402;0.016;2022-12-01T00:35:09;9.10;99.90
24902;DHT22;31328;51.402;0.016;2022-12-01T00:37:36;9.10;99.90
24902;DHT22;31328;51.402;0.016;2022-12-01T00:40:03;9.10;99.90
24902;DHT22;31328;51.402;0.016;2022-12-01T00:42:30;9.10;99.90
24902;DHT22;31328;51.402;0.016;2022-12-01T00:44:56;9.10;99.90
24902;DHT22;31328;51.402;0.016;2022-12-01T00:47:23;9.10;99.90
24902;DHT22;31328;51.402;0.016;2022-12-01T00:49:49;9.10;99.90
24902;DHT22;31328;51.402;0.016;2022-12-01T00:52:18;9.10;99.90
24902;DHT22;31328;51.402;0.016;2022-12-01T00:54:45;9.10;99.90
24902;DHT22;31328;51.402;0.016;2022-12-01T00:57:12;9.10;99.90
24902;DHT22;31328;51.402;0.016;2022-12-01T00:59:38;9.10;99.90
24902;DHT22;31328;51.402;0.016;2022-12-01T01:02:06;9.10;99.90
24902;DHT22;31328;51.402;0.016;2022-12-01T01:04:35;9.00;99.90
24902;DHT22;31328;51.402;0.016;2022-12-01T01:07:01;9.00;99.90
24902;DHT22;31328;51.402;0.016;2022-12-01T01:09:28;9.00;99.90
24902;DHT22;31328;51.402;0.016;2022-12-01T01:11:55;9.00;99.90
24902;DHT22;31328;51.402;0.016;2022-12-01T01:14:22;9.00;99.90
24902;DHT22;31328;51.402;0.016;2022-12-01T01:16:49;9.00;99.90
24902;DHT22;31328;51.402;0.016;2022-12-01T01:19:16;9.00;99.90
24902;DHT22;31328;51.402;0.016;2022-12-01T01:21:42;9.00;99.90
24902;DHT22;31328;51.402;0.016;2022-12-01T01:24:09;9.00;99.90
24902;DHT22;31328;51.402;0.016;2022-12-01T01:26:35;8.90;99.90
24902;DHT22;31328;51.402;0.016;2022-12-01T01:29:04;8.90;99.90
24902;DHT22;31328;51.402;0.016;2022-12-01T01:31:32;8.90;99.90
24902;DHT22;31328;51.402;0.016;2022-12-01T01:33:59;8.80;99.90
24902;DHT22;31328;51.402;0.016;2022-12-01T01:36:26;8.80;99.90
24902;DHT22;31328;51.402;0.016;2022-12-01T01:38:52;8.80;99.90
24902;DHT22;31328;51.402;0.016;2022-12-01T01:41:21;8.70;99.90
24902;DHT22;31328;51.402;0.016;2022-12-01T01:46:16;8.60;99.90
24902;DHT22;31328;51.402;0.016;2022-12-01T01:48:54;8.60;99.90
24902;DHT22;31328;51.402;0.016;2022-12-01T01:51:27;8.60;99.90
24902;DHT22;31328;51.402;0.016;2022-12-01T01:53:59;8.60;99.90
24902;DHT22;31328;51.402;0.016;2022-12-01T01:56:27;8.50;99.90
24902;DHT22;31328;51.402;0.016;2022-12-01T01:58:54;8.50;99.90
24902;DHT22;31328;51.402;0.016;2022-12-01T02:01:21;8.50;99.90
24902;DHT22;31328;51.402;0.016;2022-12-01T02:03:48;8.50;99.90
24902;DHT22;31328;51.402;0.016;2022-12-01T02:06:16;8.50;99.90
24902;DHT22;31328;51.402;0.016;2022-12-01T02:08:42;8.50;99.90
24902;DHT22;31328;51.402;0.016;2022-12-01T02:11:22;8.50;99.90
24902;DHT22;31328;51.402;0.016;2022-12-01T02:19:15;8.40;99.90
24902;DHT22;31328;51.402;0.016;2022-12-01T02:30:49;8.20;99.90
24902;DHT22;31328;51.402;0.016;2022-12-01T02:33:35;8.20;99.90
24902;DHT22;31328;51.402;0.016;2022-12-01T02:36:25;8.10;99.90
24902;DHT22;31328;51.402;0.016;2022-12-01T02:39:16;8.00;99.90
24902;DHT22;31328;51.402;0.016;2022-12-01T02:41:47;7.90;99.90
24902;DHT22;31328;51.402;0.016;2022-12-01T02:44:21;7.90;99.90
24902;DHT22;31328;51.402;0.016;2022-12-01T02:47:03;7.80;99.90
24902;DHT22;31328;51.402;0.016;2022-12-01T02:49:34;7.70;99.90
24902;DHT22;31328;51.402;0.016;2022-12-01T02:52:04;7.70;99.90
24902;DHT22;31328;51.402;0.016;2022-12-01T02:54:32;7.70;99.90
24902;DHT22;31328;51.402;0.016;2022-12-01T02:56:58;7.70;99.90
24902;DHT22;31328;51.402;0.016;2022-12-01T02:59:25;7.60;99.90
24902;DHT22;31328;51.402;0.016;2022-12-01T03:07:38;7.60;99.90
24902;DHT22;31328;51.402;0.016;2022-12-01T03:10:37;7.60;99.90
24902;DHT22;31328;51.402;0.016;2022-12-01T03:19:04;7.60;99.90
24902;DHT22;31328;51.402;0.016;2022-12-01T03:21:38;7.70;99.90
24902;DHT22;31328;51.402;0.016;2022-12-01T03:24:14;7.70;99.90
24902;DHT22;31328;51.402;0.016;2022-12-01T03:26:46;7.70;99.90
24902;DHT22;31328;51.402;0.016;2022-12-01T03:29:20;7.70;99.90
24902;DHT22;31328;51.402;0.016;2022-12-01T03:31:52;7.70;99.90
24902;DHT22;31328;51.402;0.016;2022-12-01T03:34:40;7.70;99.90
24902;DHT22;31328;51.402;0.016;2022-12-01T03:37:12;7.70;99.90
24902;DHT22;31328;51.402;0.016;2022-12-01T03:39:45;7.70;99.90
24902;DHT22;31328;51.402;0.016;2022-12-01T03:42:17;7.80;99.90
24902;DHT22;31328;51.402;0.016;2022-12-01T03:44:51;7.80;99.90
24902;DHT22;31328;51.402;0.016;2022-12-01T03:47:21;7.80;99.90
24902;DHT22;31328;51.402;0.016;2022-12-01T03:49:50;7.80;99.90
24902;DHT22;31328;51.402;0.016;2022-12-01T04:00:18;7.90;99.90
24902;DHT22;31328;51.402;0.016;2022-12-01T04:02:45;7.90;99.90
24902;DHT22;31328;51.402;0.016;2022-12-01T04:05:12;7.90;99.90
24902;DHT22;31328;51.402;0.016;2022-12-01T04:07:39;7.90;99.90
24902;DHT22;31328;51.402;0.016;2022-12-01T04:10:06;7.90;99.90
24902;DHT22;31328;51.402;0.016;2022-12-01T04:12:33;7.90;99.90
24902;DHT22;31328;51.402;0.016;2022-12-01T04:15:02;7.90;99.90
24902;DHT22;31328;51.402;0.016;2022-12-01T04:17:30;7.90;99.90
24902;DHT22;31328;51.402;0.016;2022-12-01T04:19:56;7.90;99.90
24902;DHT22;31328;51.402;0.016;2022-12-01T04:22:23;7.90;99.90
24902;DHT22;31328;51.402;0.016;2022-12-01T04:24:51;7.90;99.90
24902;DHT22;31328;51.402;0.016;2022-12-01T04:27:18;7.90;99.90
24902;DHT22;31328;51.402;0.016;2022-12-01T04:29:45;7.90;99.90
24902;DHT22;31328;51.402;0.016;2022-12-01T04:32:11;7.80;99.90
24902;DHT22;31328;51.402;0.016;2022-12-01T04:34:38;7.80;99.90
24902;DHT22;31328;51.402;0.016;2022-12-01T04:37:05;7.80;99.90
24902;DHT22;31328;51.402;0.016;2022-12-01T04:39:33;7.80;99.90
24902;DHT22;31328;51.402;0.016;2022-12-01T04:41:59;7.70;99.90
24902;DHT22;31328;51.402;0.016;2022-12-01T04:44:25;7.70;99.90
24902;DHT22;31328;51.402;0.016;2022-12-01T04:46:52;7.60;99.90
24902;DHT22;31328;51.402;0.016;2022-12-01T04:49:19;7.60;99.90
24902;DHT22;31328;51.402;0.016;2022-12-01T04:51:47;7.60;99.90
24902;DHT22;31328;51.402;0.016;2022-12-01T04:54:14;7.50;99.90
24902;DHT22;31328;51.402;0.016;2022-12-01T04:56:41;7.50;99.90
24902;DHT22;31328;51.402;0.016;2022-12-01T04:59:07;7.40;99.90
24902;DHT22;31328;51.402;0.016;2022-12-01T05:01:34;7.40;99.90
24902;DHT22;31328;51.402;0.016;2022-12-01T05:04:01;7.30;99.90
24902;DHT22;31328;51.402;0.016;2022-12-01T05:06:28;7.30;99.90
24902;DHT22;31328;51.402;0.016;2022-12-01T05:08:59;7.20;99.90
24902;DHT22;31328;51.402;0.016;2022-12-01T05:11:27;7.20;99.90
24902;DHT22;31328;51.402;0.016;2022-12-01T05:13:54;7.10;99.90
24902;DHT22;31328;51.402;0.016;2022-12-01T05:16:22;7.10;99.90
24902;DHT22;31328;51.402;0.016;2022-12-01T05:18:51;7.10;99.90
24902;DHT22;31328;51.402;0.016;2022-12-01T05:21:38;7.10;99.90
24902;DHT22;31328;51.402;0.016;2022-12-01T05:24:05;7.00;99.90
24902;DHT22;31328;51.402;0.016;2022-12-01T05:26:32;7.00;99.90
24902;DHT22;31328;51.402;0.016;2022-12-01T05:28:59;7.00;99.90
24902;DHT22;31328;51.402;0.016;2022-12-01T05:31:25;7.00;99.90
24902;DHT22;31328;51.402;0.016;2022-12-01T05:33:51;6.90;99.90
24902;DHT22;31328;51.402;0.016;2022-12-01T05:36:17;7.00;99.90
24902;DHT22;31328;51.402;0.016;2022-12-01T05:38:44;7.00;99.90
24902;DHT22;31328;51.402;0.016;2022-12-01T05:41:10;7.00;99.90
24902;DHT22;31328;51.402;0.016;2022-12-01T05:43:36;7.00;99.90
24902;DHT22;31328;51.402;0.016;2022-12-01T05:46:03;7.00;99.90
24902;DHT22;31328;51.402;0.016;2022-12-01T05:48:29;7.00;99.90
24902;DHT22;31328;51.402;0.016;2022-12-01T05:50:56;7.00;99.90
24902;DHT22;31328;51.402;0.016;2022-12-01T05:53:22;7.10;99.90
24902;DHT22;31328;51.402;0.016;2022-12-01T05:55:54;7.10;99.90
24902;DHT22;31328;51.402;0.016;2022-12-01T05:58:21;7.10;99.90
24902;DHT22;31328;51.402;0.016;2022-12-01T06:00:47;7.10;99.90
24902;DHT22;31328;51.402;0.016;2022-12-01T06:03:13;7.10;99.90
24902;DHT22;31328;51.402;0.016;2022-12-01T06:05:40;7.10;99.90
24902;DHT22;31328;51.402;0.016;2022-12-01T06:08:06;7.10;99.90
24902;DHT22;31328;51.402;0.016;2022-12-01T06:10:33;7.10;99.90
24902;DHT22;31328;51.402;0.016;2022-12-01T06:12:59;7.10;99.90
24902;DHT22;31328;51.402;0.016;2022-12-01T06:15:26;7.10;99.90
24902;DHT22;31328;51.402;0.016;2022-12-01T06:17:52;7.10;99.90
24902;DHT22;31328;51.402;0.016;2022-12-01T06:20:19;7.10;99.90
24902;DHT22;31328;51.402;0.016;2022-12-01T06:22:45;7.10;99.90
24902;DHT22;31328;51.402;0.016;2022-12-01T06:25:11;7.10;99.90
24902;DHT22;31328;51.402;0.016;2022-12-01T06:27:37;7.10;99.90
24902;DHT22;31328;51.402;0.016;2022-12-01T06:30:04;7.10;99.90
24902;DHT22;31328;51.402;0.016;2022-12-01T06:32:31;7.10;99.90
24902;DHT22;31328;51.402;0.016;2022-12-01T06:34:57;7.10;99.90
24902;DHT22;31328;51.402;0.016;2022-12-01T06:37:25;7.10;99.90
24902;DHT22;31328;51.402;0.016;2022-12-01T06:39:51;7.10;99.90
24902;DHT22;31328;51.402;0.016;2022-12-01T06:42:17;7.10;99.90
24902;DHT22;31328;51.402;0.016;2022-12-01T06:44:44;7.10;99.90
24902;DHT22;31328;51.402;0.016;2022-12-01T06:47:11;7.10;99.90
24902;DHT22;31328;51.402;0.016;2022-12-01T06:49:37;7.10;99.90
24902;DHT22;31328;51.402;0.016;2022-12-01T06:52:04;7.10;99.90
24902;DHT22;31328;51.402;0.016;2022-12-01T06:54:30;7.00;99.90
24902;DHT22;31328;51.402;0.016;2022-12-01T06:56:56;7.00;99.90
24902;DHT22;31328;51.402;0.016;2022-12-01T06:59:23;7.00;99.90
24902;DHT22;31328;51.402;0.016;2022-12-01T07:01:51;6.90;99.90
24902;DHT22;31328;51.402;0.016;2022-12-01T07:04:17;6.90;99.90
24902;DHT22;31328;51.402;0.016;2022-12-01T07:06:43;6.80;99.90
24902;DHT22;31328;51.402;0.016;2022-12-01T07:09:10;6.80;99.90
24902;DHT22;31328;51.402;0.016;2022-12-01T07:11:36;6.70;99.90
24902;DHT22;31328;51.402;0.016;2022-12-01T07:14:03;6.70;99.90
24902;DHT22;31328;51.402;0.016;2022-12-01T07:16:29;6.60;99.90
24902;DHT22;31328;51.402;0.016;2022-12-01T07:18:56;6.50;99.90
24902;DHT22;31328;51.402;0.016;2022-12-01T07:21:22;6.50;99.90
24902;DHT22;31328;51.402;0.016;2022-12-01T07:23:49;6.40;99.90
24902;DHT22;31328;51.402;0.016;2022-12-01T07:26:17;6.40;99.90
24902;DHT22;31328;51.402;0.016;2022-12-01T07:28:44;6.40;99.90
24902;DHT22;31328;51.402;0.016;2022-12-01T07:31:16;6.40;99.90
24902;DHT22;31328;51.402;0.016;2022-12-01T07:33:43;6.40;99.90
24902;DHT22;31328;51.402;0.016;2022-12-01T07:36:10;6.30;99.90
24902;DHT22;31328;51.402;0.016;2022-12-01T07:38:37;6.30;99.90
24902;DHT22;31328;51.402;0.016;2022-12-01T07:41:13;6.30;99.90
24902;DHT22;31328;51.402;0.016;2022-12-01T07:43:40;6.30;99.90
24902;DHT22;31328;51.402;0.016;2022-12-01T07:46:12;6.30;99.90
24902;DHT22;31328;51.402;0.016;2022-12-01T07:48:40;6.30;99.90
24902;DHT22;31328;51.402;0.016;2022-12-01T07:51:08;6.30;99.90
24902;DHT22;31328;51.402;0.016;2022-12-01T07:53:35;6.40;99.90
24902;DHT22;31328;51.402;0.016;2022-12-01T07:56:03;6.40;99.90
24902;DHT22;31328;51.402;0.016;2022-12-01T07:58:31;6.40;99.90
24902;DHT22;31328;51.402;0.016;2022-12-01T08:00:57;6.40;99.90
24902;DHT22;31328;51.402;0.016;2022-12-01T08:03:24;6.40;99.90
24902;DHT22;31328;51.402;0.016;2022-12-01T08:05:57;6.40;99.90
24902;DHT22;31328;51.402;0.016;2022-12-01T08:08:24;6.40;99.90
24902;DHT22;31328;51.402;0.016;2022-12-01T08:10:51;6.40;99.90
24902;DHT22;31328;51.402;0.016;2022-12-01T08:13:19;6.50;99.90
24902;DHT22;31328;51.402;0.016;2022-12-01T08:15:45;6.50;99.90
24902;DHT22;31328;51.402;0.016;2022-12-01T08:18:12;6.50;99.90
24902;DHT22;31328;51.402;0.016;2022-12-01T08:20:38;6.50;99.90
24902;DHT22;31328;51.402;0.016;2022-12-01T08:23:05;6.60;99.90
24902;DHT22;31328;51.402;0.016;2022-12-01T08:25:33;6.60;99.90
24902;DHT22;31328;51.402;0.016;2022-12-01T08:28:00;6.60;99.90
24902;DHT22;31328;51.402;0.016;2022-12-01T08:30:26;6.70;99.90
24902;DHT22;31328;51.402;0.016;2022-12-01T08:32:54;6.70;99.90
24902;DHT22;31328;51.402;0.016;2022-12-01T08:35:21;6.70;99.90
24902;DHT22;31328;51.402;0.016;2022-12-01T08:37:47;6.80;99.90
24902;DHT22;31328;51.402;0.016;2022-12-01T08:40:16;6.80;99.90
24902;DHT22;31328;51.402;0.016;2022-12-01T08:42:42;6.90;99.90
24902;DHT22;31328;51.402;0.016;2022-12-01T08:45:09;6.90;99.90
24902;DHT22;31328;51.402;0.016;2022-12-01T08:47:35;7.00;99.90
24902;DHT22;31328;51.402;0.016;2022-12-01T08:50:02;7.10;99.90
24902;DHT22;31328;51.402;0.016;2022-12-01T08:52:33;7.10;99.90
24902;DHT22;31328;51.402;0.016;2022-12-01T08:54:59;7.30;99.90
24902;DHT22;31328;51.402;0.016;2022-12-01T08:57:28;7.30;99.90
24902;DHT22;31328;51.402;0.016;2022-12-01T08:59:55;7.40;99.90
24902;DHT22;31328;51.402;0.016;2022-12-01T09:02:21;7.50;99.90
24902;DHT22;31328;51.402;0.016;2022-12-01T09:04:47;7.50;99.90
24902;DHT22;31328;51.402;0.016;2022-12-01T09:07:15;7.60;99.90
24902;DHT22;31328;51.402;0.016;2022-12-01T09:09:43;7.60;99.90
24902;DHT22;31328;51.402;0.016;2022-12-01T09:12:10;7.70;99.90
24902;DHT22;31328;51.402;0.016;2022-12-01T09:14:38;7.80;99.90
24902;DHT22;31328;51.402;0.016;2022-12-01T09:17:06;7.80;99.90
24902;DHT22;31328;51.402;0.016;2022-12-01T09:19:32;7.80;99.90
24902;DHT22;31328;51.402;0.016;2022-12-01T09:21:59;7.80;99.90
24902;DHT22;31328;51.402;0.016;2022-12-01T09:24:25;7.80;99.90
24902;DHT22;31328;51.402;0.016;2022-12-01T09:26:56;7.80;99.90
24902;DHT22;31328;51.402;0.016;2022-12-01T09:29:23;7.80;99.90
24902;DHT22;31328;51.402;0.016;2022-12-01T09:31:50;7.80;99.90
24902;DHT22;31328;51.402;0.016;2022-12-01T09:34:18;7.70;99.90
24902;DHT22;31328;51.402;0.016;2022-12-01T09:36:45;7.70;99.90
24902;DHT22;31328;51.402;0.016;2022-12-01T09:39:14;7.70;99.90
24902;DHT22;31328;51.402;0.016;2022-12-01T09:44:11;7.70;99.90
24902;DHT22;31328;51.402;0.016;2022-12-01T09:46:47;7.70;99.90
24902;DHT22;31328;51.402;0.016;2022-12-01T09:49:25;7.60;99.90
24902;DHT22;31328;51.402;0.016;2022-12-01T09:51:53;7.60;99.90
24902;DHT22;31328;51.402;0.016;2022-12-01T09:54:20;7.60;99.90
24902;DHT22;31328;51.402;0.016;2022-12-01T09:56:49;7.70;99.90
24902;DHT22;31328;51.402;0.016;2022-12-01T09:59:29;7.70;99.90
24902;DHT22;31328;51.402;0.016;2022-12-01T10:02:00;7.70;99.90
24902;DHT22;31328;51.402;0.016;2022-12-01T10:07:02;7.70;99.90
24902;DHT22;31328;51.402;0.016;2022-12-01T10:09:42;7.80;99.90
24902;DHT22;31328;51.402;0.016;2022-12-01T10:12:15;7.80;99.90
24902;DHT22;31328;51.402;0.016;2022-12-01T10:14:45;7.90;99.90
24902;DHT22;31328;51.402;0.016;2022-12-01T10:17:20;7.90;99.90
24902;DHT22;31328;51.402;0.016;2022-12-01T10:20:18;7.90;99.90
24902;DHT22;31328;51.402;0.016;2022-12-01T10:22:52;8.00;99.90
24902;DHT22;31328;51.402;0.016;2022-12-01T10:28:21;8.10;99.90
24902;DHT22;31328;51.402;0.016;2022-12-01T10:30:52;8.10;99.90
24902;DHT22;31328;51.402;0.016;2022-12-01T10:33:25;8.20;99.90
24902;DHT22;31328;51.402;0.016;2022-12-01T10:35:52;8.30;99.90
24902;DHT22;31328;51.402;0.016;2022-12-01T10:38:25;8.40;99.90
24902;DHT22;31328;51.402;0.016;2022-12-01T10:40:53;8.50;99.90
24902;DHT22;31328;51.402;0.016;2022-12-01T10:43:31;8.60;99.90
24902;DHT22;31328;51.402;0.016;2022-12-01T10:46:12;8.70;99.90
24902;DHT22;31328;51.402;0.016;2022-12-01T10:51:21;8.90;99.90
24902;DHT22;31328;51.402;0.016;2022-12-01T10:53:48;9.00;99.90
24902;DHT22;31328;51.402;0.016;2022-12-01T10:56:19;9.10;99.90
24902;DHT22;31328;51.402;0.016;2022-12-01T10:58:54;9.10;99.90
24902;DHT22;31328;51.402;0.016;2022-12-01T11:01:24;9.10;99.90
24902;DHT22;31328;51.402;0.016;2022-12-01T11:03:58;9.20;99.90
24902;DHT22;31328;51.402;0.016;2022-12-01T11:06:28;9.20;99.90
24902;DHT22;31328;51.402;0.016;2022-12-01T11:09:01;9.20;99.90
24902;DHT22;31328;51.402;0.016;2022-12-01T11:11:37;9.20;99.90
24902;DHT22;31328;51.402;0.016;2022-12-01T11:14:18;9.20;99.90
24902;DHT22;31328;51.402;0.016;2022-12-01T11:16:47;9.30;99.90
24902;DHT22;31328;51.402;0.016;2022-12-01T11:19:25;9.30;99.90
24902;DHT22;31328;51.402;0.016;2022-12-01T11:21:55;9.30;99.90
24902;DHT22;31328;51.402;0.016;2022-12-01T11:24:43;9.30;99.90
24902;DHT22;31328;51.402;0.016;2022-12-01T11:27:21;9.30;99.90
24902;DHT22;31328;51.402;0.016;2022-12-01T11:29:53;9.40;99.90
24902;DHT22;31328;51.402;0.016;2022-12-01T11:32:27;9.40;99.90
24902;DHT22;31328;51.402;0.016;2022-12-01T11:34:57;9.40;99.90
24902;DHT22;31328;51.402;0.016;2022-12-01T11:37:35;9.40;99.90
24902;DHT22;31328;51.402;0.016;2022-12-01T11:40:23;9.40;99.90
24902;DHT22;31328;51.402;0.016;2022-12-01T11:42:52;9.50;99.90
24902;DHT22;31328;51.402;0.016;2022-12-01T11:50:26;9.50;99.90
24902;DHT22;31328;51.402;0.016;2022-12-01T11:52:53;9.50;99.90
24902;DHT22;31328;51.402;0.016;2022-12-01T11:55:22;9.50;99.90
24902;DHT22;31328;51.402;0.016;2022-12-01T11:57:51;9.60;99.90
24902;DHT22;31328;51.402;0.016;2022-12-01T12:00:21;9.60;99.90
24902;DHT22;31328;51.402;0.016;2022-12-01T12:08:37;9.70;99.90
24902;DHT22;31328;51.402;0.016;2022-12-01T12:11:20;9.70;99.90
24902;DHT22;31328;51.402;0.016;2022-12-01T12:17:07;9.70;99.90
24902;DHT22;31328;51.402;0.016;2022-12-01T12:37:10;9.90;99.90
24902;DHT22;31328;51.402;0.016;2022-12-01T12:39:53;9.90;99.90
24902;DHT22;31328;51.402;0.016;2022-12-01T12:42:30;9.90;99.90
24902;DHT22;31328;51.402;0.016;2022-12-01T12:45:13;10.00;99.90
24902;DHT22;31328;51.402;0.016;2022-12-01T12:50:36;10.00;99.90
24902;DHT22;31328;51.402;0.016;2022-12-01T12:53:14;10.10;99.90
24902;DHT22;31328;51.402;0.016;2022-12-01T12:55:47;10.10;99.90
24902;DHT22;31328;51.402;0.016;2022-12-01T12:58:22;10.10;99.90
24902;DHT22;31328;51.402;0.016;2022-12-01T13:00:51;10.20;99.90
24902;DHT22;31328;51.402;0.016;2022-12-01T13:06:02;10.20;99.90
24902;DHT22;31328;51.402;0.016;2022-12-01T13:11:12;10.20;99.90
24902;DHT22;31328;51.402;0.016;2022-12-01T13:13:52;10.20;99.90
24902;DHT22;31328;51.402;0.016;2022-12-01T13:16:28;10.20;99.90
24902;DHT22;31328;51.402;0.016;2022-12-01T13:19:45;10.20;99.90
24902;DHT22;31328;51.402;0.016;2022-12-01T13:21:48;10.30;99.90
24902;DHT22;31328;51.402;0.016;2022-12-01T13:24:21;10.30;99.90
24902;DHT22;31328;51.402;0.016;2022-12-01T13:26:53;10.30;99.90
24902;DHT22;31328;51.402;0.016;2022-12-01T13:29:22;10.40;99.90
24902;DHT22;31328;51.402;0.016;2022-12-01T13:31:51;10.40;99.90
24902;DHT22;31328;51.402;0.016;2022-12-01T13:34:21;10.40;99.90
24902;DHT22;31328;51.402;0.016;2022-12-01T13:36:50;10.30;99.90
24902;DHT22;31328;51.402;0.016;2022-12-01T13:39:28;10.30;99.90
24902;DHT22;31328;51.402;0.016;2022-12-01T13:42:07;10.30;99.90
24902;DHT22;31328;51.402;0.016;2022-12-01T13:44:42;10.40;99.90
24902;DHT22;31328;51.402;0.016;2022-12-01T13:49:46;10.40;99.90
24902;DHT22;31328;51.402;0.016;2022-12-01T13:57:26;10.40;99.90
24902;DHT22;31328;51.402;0.016;2022-12-01T14:02:33;10.40;99.90
24902;DHT22;31328;51.402;0.016;2022-12-01T14:07:52;10.40;99.90
24902;DHT22;31328;51.402;0.016;2022-12-01T14:10:24;10.40;99.90
24902;DHT22;31328;51.402;0.016;2022-12-01T14:12:55;10.50;99.90
24902;DHT22;31328;51.402;0.016;2022-12-01T14:15:33;10.50;99.90
24902;DHT22;31328;51.402;0.016;2022-12-01T14:18:04;10.40;99.90
24902;DHT22;31328;51.402;0.016;2022-12-01T14:20:34;10.40;99.90
24902;DHT22;31328;51.402;0.016;2022-12-01T14:23:26;10.40;99.90
24902;DHT22;31328;51.402;0.016;2022-12-01T14:26:16;10.40;99.90
24902;DHT22;31328;51.402;0.016;2022-12-01T14:34:07;10.40;99.90
24902;DHT22;31328;51.402;0.016;2022-12-01T14:36:48;10.30;99.90
24902;DHT22;31328;51.402;0.016;2022-12-01T14:42:02;10.30;99.90
24902;DHT22;31328;51.402;0.016;2022-12-01T14:44:43;10.30;99.90
24902;DHT22;31328;51.402;0.016;2022-12-01T14:47:18;10.30;99.90
24902;DHT22;31328;51.402;0.016;2022-12-01T14:49:55;10.30;99.90
24902;DHT22;31328;51.402;0.016;2022-12-01T14:52:45;10.30;99.90
24902;DHT22;31328;51.402;0.016;2022-12-01T14:55:14;10.30;99.90
24902;DHT22;31328;51.402;0.016;2022-12-01T14:57:47;10.30;99.90
24902;DHT22;31328;51.402;0.016;2022-12-01T15:00:22;10.30;99.90
24902;DHT22;31328;51.402;0.016;2022-12-01T15:02:52;10.30;99.90
24902;DHT22;31328;51.402;0.016;2022-12-01T15:05:22;10.30;99.90
24902;DHT22;31328;51.402;0.016;2022-12-01T15:07:52;10.20;99.90
24902;DHT22;31328;51.402;0.016;2022-12-01T15:10:32;10.20;99.90
24902;DHT22;31328;51.402;0.016;2022-12-01T15:13:22;10.20;99.90
24902;DHT22;31328;51.402;0.016;2022-12-01T15:15:52;10.20;99.90
24902;DHT22;31328;51.402;0.016;2022-12-01T15:18:26;10.20;99.90
24902;DHT22;31328;51.402;0.016;2022-12-01T15:23:54;10.20;99.90
24902;DHT22;31328;51.402;0.016;2022-12-01T15:26:23;10.20;99.90
24902;DHT22;31328;51.402;0.016;2022-12-01T15:29:03;10.10;99.90
24902;DHT22;31328;51.402;0.016;2022-12-01T15:31:30;10.10;99.90
24902;DHT22;31328;51.402;0.016;2022-12-01T15:33:56;10.10;99.90
24902;DHT22;31328;51.402;0.016;2022-12-01T15:36:23;10.10;99.90
24902;DHT22;31328;51.402;0.016;2022-12-01T15:38:49;10.10;99.90
24902;DHT22;31328;51.402;0.016;2022-12-01T15:41:18;10.10;99.90
24902;DHT22;31328;51.402;0.016;2022-12-01T15:43:54;10.10;99.90
24902;DHT22;31328;51.402;0.016;2022-12-01T15:46:27;10.00;99.90
24902;DHT22;31328;51.402;0.016;2022-12-01T15:49:14;10.00;99.90
24902;DHT22;31328;51.402;0.016;2022-12-01T15:51:41;10.00;99.90
24902;DHT22;31328;51.402;0.016;2022-12-01T15:54:16;10.00;99.90
24902;DHT22;31328;51.402;0.016;2022-12-01T15:56:44;10.00;99.90
24902;DHT22;31328;51.402;0.016;2022-12-01T16:01:41;9.90;99.90
24902;DHT22;31328;51.402;0.016;2022-12-01T16:04:18;9.80;99.90
24902;DHT22;31328;51.402;0.016;2022-12-01T16:06:58;9.80;99.90
24902;DHT22;31328;51.402;0.016;2022-12-01T16:09:37;9.70;99.90
24902;DHT22;31328;51.402;0.016;2022-12-01T16:14:30;9.50;99.90
24902;DHT22;31328;51.402;0.016;2022-12-01T16:16:57;9.50;99.90
24902;DHT22;31328;51.402;0.016;2022-12-01T16:19:28;9.40;99.90
24902;DHT22;31328;51.402;0.016;2022-12-01T16:24:51;9.30;99.90
24902;DHT22;31328;51.402;0.016;2022-12-01T16:30:02;9.20;99.90
24902;DHT22;31328;51.402;0.016;2022-12-01T16:32:36;9.20;99.90
24902;DHT22;31328;51.402;0.016;2022-12-01T16:35:25;9.10;99.90
24902;DHT22;31328;51.402;0.016;2022-12-01T16:37:53;9.10;99.90
24902;DHT22;31328;51.402;0.016;2022-12-01T16:40:20;9.10;99.90
24902;DHT22;31328;51.402;0.016;2022-12-01T16:42:46;9.10;99.90
24902;DHT22;31328;51.402;0.016;2022-12-01T16:45:16;9.10;99.90
24902;DHT22;31328;51.402;0.016;2022-12-01T16:47:44;9.10;99.90
24902;DHT22;31328;51.402;0.016;2022-12-01T16:50:15;9.10;99.90
24902;DHT22;31328;51.402;0.016;2022-12-01T16:52:42;9.10;99.90
24902;DHT22;31328;51.402;0.016;2022-12-01T16:58:01;9.00;99.90
24902;DHT22;31328;51.402;0.016;2022-12-01T17:00:27;9.00;99.90
24902;DHT22;31328;51.402;0.016;2022-12-01T17:02:55;9.00;99.90
24902;DHT22;31328;51.402;0.016;2022-12-01T17:05:22;9.00;99.90
24902;DHT22;31328;51.402;0.016;2022-12-01T17:07:48;9.00;99.90
24902;DHT22;31328;51.402;0.016;2022-12-01T17:10:15;8.90;99.90
24902;DHT22;31328;51.402;0.016;2022-12-01T17:12:41;8.90;99.90
24902;DHT22;31328;51.402;0.016;2022-12-01T17:15:08;8.90;99.90
24902;DHT22;31328;51.402;0.016;2022-12-01T17:17:35;8.80;99.90
24902;DHT22;31328;51.402;0.016;2022-12-01T17:20:03;8.80;99.90
24902;DHT22;31328;51.402;0.016;2022-12-01T17:22:30;8.80;99.90
24902;DHT22;31328;51.402;0.016;2022-12-01T17:24:56;8.70;99.90
24902;DHT22;31328;51.402;0.016;2022-12-01T17:27:22;8.70;99.90
24902;DHT22;31328;51.402;0.016;2022-12-01T17:29:50;8.60;99.90
24902;DHT22;31328;51.402;0.016;2022-12-01T17:32:16;8.60;99.90
24902;DHT22;31328;51.402;0.016;2022-12-01T17:34:42;8.50;99.90
24902;DHT22;31328;51.402;0.016;2022-12-01T17:37:09;8.50;99.90
24902;DHT22;31328;51.402;0.016;2022-12-01T17:39:35;8.40;99.90
24902;DHT22;31328;51.402;0.016;2022-12-01T17:42:02;8.40;99.90
24902;DHT22;31328;51.402;0.016;2022-12-01T17:44:29;8.30;99.90
24902;DHT22;31328;51.402;0.016;2022-12-01T17:46:55;8.30;99.90
24902;DHT22;31328;51.402;0.016;2022-12-01T17:49:21;8.30;99.90
24902;DHT22;31328;51.402;0.016;2022-12-01T17:51:47;8.20;99.90
24902;DHT22;31328;51.402;0.016;2022-12-01T17:54:14;8.30;99.90
24902;DHT22;31328;51.402;0.016;2022-12-01T17:56:40;8.20;99.90
24902;DHT22;31328;51.402;0.016;2022-12-01T17:59:07;8.20;99.90
24902;DHT22;31328;51.402;0.016;2022-12-01T18:01:34;8.20;99.90
24902;DHT22;31328;51.402;0.016;2022-12-01T18:04:00;8.20;99.90